createdAt,value
2022-11-24T00:00:50.457Z,8.30
2022-11-24T00:03:17.096Z,6.57
2022-11-24T00:05:43.726Z,6.77
2022-11-24T00:08:10.644Z,6.67
2022-11-24T00:10:37.047Z,7.47
2022-11-24T00:13:03.495Z,4.77
2022-11-24T00:15:29.856Z,8.77
2022-11-24T00:17:56.523Z,5.23
2022-11-24T00:20:23.420Z,4.13
2022-11-24T00:22:49.788Z,8.60
2022-11-24T00:25:16.179Z,3.70
2022-11-24T00:27:42.531Z,6.97
2022-11-24T00:30:09.862Z,7.00
2022-11-24T00:32:36.246Z,3.57
2022-11-24T00:35:02.705Z,6.50
2022-11-24T00:37:29.114Z,9.30
2022-11-24T00:39:55.501Z,4.87
2022-11-24T00:42:21.873Z,3.23
2022-11-24T00:44:48.259Z,6.80
2022-11-24T00:47:14.797Z,6.27
2022-11-24T00:49:41.231Z,4.63
2022-11-24T00:52:07.730Z,12.43
2022-11-24T00:54:34.436Z,5.23
2022-11-24T00:57:01.144Z,3.97
2022-11-24T00:59:27.511Z,3.63
2022-11-24T01:01:53.955Z,4.73
2022-11-24T01:04:20.398Z,3.13
2022-11-24T01:06:46.845Z,9.07
2022-11-24T01:09:13.236Z,9.27
2022-11-24T01:11:58.379Z,5.90
2022-11-24T01:14:25.444Z,3.57
2022-11-24T01:16:52.281Z,3.60
2022-11-24T01:19:19.225Z,4.67
2022-11-24T01:21:45.906Z,2.80
2022-11-24T01:24:12.942Z,3.63
2022-11-24T01:26:40.687Z,8.50
2022-11-24T01:29:07.236Z,7.27
2022-11-24T01:31:33.724Z,5.77
2022-11-24T01:34:00.083Z,4.13
2022-11-24T01:36:26.447Z,4.57
2022-11-24T01:38:52.865Z,4.47
2022-11-24T01:41:22.603Z,6.83
2022-11-24T01:43:50.348Z,4.83
2022-11-24T01:46:29.898Z,5.23
2022-11-24T01:49:00.652Z,7.63
2022-11-24T01:51:30.413Z,4.23
2022-11-24T01:54:11.180Z,2.20
2022-11-24T01:56:41.086Z,5.53
2022-11-24T01:59:11.999Z,7.13
2022-11-24T02:01:38.464Z,6.87
2022-11-24T02:04:10.937Z,6.90
2022-11-24T02:06:40.039Z,5.87
2022-11-24T02:09:30.552Z,3.50
2022-11-24T02:11:59.506Z,8.07
2022-11-24T02:14:27.296Z,9.80
2022-11-24T02:16:54.055Z,4.77
2022-11-24T02:19:29.236Z,2.93
2022-11-24T02:21:55.672Z,4.97
2022-11-24T02:24:29.579Z,5.23
2022-11-24T02:26:56.019Z,3.93
2022-11-24T02:29:22.543Z,9.27
2022-11-24T02:31:55.089Z,2.80
2022-11-24T02:34:21.529Z,6.97
2022-11-24T02:36:47.922Z,3.43
2022-11-24T02:39:16.178Z,4.47
2022-11-24T02:41:46.124Z,6.87
2022-11-24T02:44:15.511Z,2.87
2022-11-24T02:46:42.079Z,3.63
2022-11-24T02:49:08.570Z,8.00
2022-11-24T02:51:35.015Z,3.00
2022-11-24T02:54:01.517Z,3.50
2022-11-24T02:56:27.890Z,5.37
2022-11-24T02:58:54.243Z,3.80
2022-11-24T03:01:20.720Z,6.83
2022-11-24T03:03:48.400Z,5.80
2022-11-24T03:06:14.827Z,4.10
2022-11-24T03:08:41.226Z,2.73
2022-11-24T03:11:07.579Z,7.23
2022-11-24T03:13:35.247Z,2.53
2022-11-24T03:16:01.927Z,5.93
2022-11-24T03:18:28.414Z,2.77
2022-11-24T03:20:59.487Z,6.63
2022-11-24T03:23:26.207Z,3.80
2022-11-24T03:25:52.552Z,1.90
2022-11-24T03:28:18.913Z,2.30
2022-11-24T03:30:49.027Z,5.17
2022-11-24T03:33:15.496Z,3.37
2022-11-24T03:35:42.244Z,3.00
2022-11-24T03:38:08.596Z,7.37
2022-11-24T03:40:35.061Z,2.20
2022-11-24T03:43:01.480Z,1.40
2022-11-24T03:45:45.415Z,4.10
2022-11-24T03:48:13.491Z,2.43
2022-11-24T03:50:39.997Z,2.23
2022-11-24T03:53:06.377Z,5.03
2022-11-24T03:55:32.851Z,4.80
2022-11-24T03:57:59.323Z,4.20
2022-11-24T04:00:26.241Z,3.23
2022-11-24T04:02:52.656Z,2.47
2022-11-24T04:05:19.130Z,1.97
2022-11-24T04:07:45.630Z,3.00
2022-11-24T04:10:12.032Z,3.17
2022-11-24T04:12:44.420Z,6.53
2022-11-24T04:15:15.690Z,4.80
2022-11-24T04:17:42.413Z,1.77
2022-11-24T04:20:10.361Z,1.07
2022-11-24T04:22:37.337Z,2.03
2022-11-24T04:25:04.422Z,1.93
2022-11-24T04:27:32.780Z,2.77
2022-11-24T04:29:59.349Z,3.00
2022-11-24T04:32:25.716Z,5.40
2022-11-24T04:34:52.113Z,2.57
2022-11-24T04:37:18.697Z,1.20
2022-11-24T04:39:46.218Z,3.17
2022-11-24T04:42:13.268Z,2.73
2022-11-24T04:44:40.061Z,1.53
2022-11-24T04:47:06.751Z,1.60
2022-11-24T04:49:33.215Z,4.00
2022-11-24T04:51:59.597Z,3.40
2022-11-24T04:54:25.992Z,2.23
2022-11-24T04:56:52.692Z,3.90
2022-11-24T04:59:19.769Z,4.00
2022-11-24T05:01:46.844Z,1.77
2022-11-24T05:04:15.530Z,8.97
2022-11-24T05:06:42.406Z,4.43
2022-11-24T05:09:13.412Z,2.97
2022-11-24T05:11:39.818Z,6.23
2022-11-24T05:14:06.204Z,2.63
2022-11-24T05:16:32.700Z,2.50
2022-11-24T05:18:59.187Z,1.83
2022-11-24T05:21:25.795Z,2.10
2022-11-24T05:23:52.116Z,4.07
2022-11-24T05:26:18.490Z,2.60
2022-11-24T05:28:45.246Z,3.87
2022-11-24T05:31:11.729Z,10.13
2022-11-24T05:33:38.261Z,6.20
2022-11-24T05:36:06.526Z,4.40
2022-11-24T05:38:33.818Z,4.20
2022-11-24T05:41:05.128Z,6.37
2022-11-24T05:43:32.007Z,3.80
2022-11-24T05:46:01.864Z,3.73
2022-11-24T05:48:28.352Z,7.00
2022-11-24T05:50:58.499Z,7.53
2022-11-24T05:53:26.860Z,5.47
2022-11-24T05:55:53.309Z,3.70
2022-11-24T05:58:19.846Z,3.20
2022-11-24T06:00:46.461Z,4.47
2022-11-24T06:03:13.078Z,3.23
2022-11-24T06:05:39.598Z,4.20
2022-11-24T06:08:06.121Z,2.97
2022-11-24T06:10:32.547Z,9.60
2022-11-24T06:12:59.017Z,6.37
2022-11-24T06:15:25.406Z,4.43
2022-11-24T06:17:55.979Z,5.77
2022-11-24T06:20:28.348Z,3.73
2022-11-24T06:22:59.155Z,3.03
2022-11-24T06:25:26.256Z,7.37
2022-11-24T06:27:52.734Z,6.67
2022-11-24T06:30:19.323Z,4.20
2022-11-24T06:32:49.454Z,4.07
2022-11-24T06:35:16.847Z,6.83
2022-11-24T06:37:43.279Z,6.90
2022-11-24T06:40:10.215Z,5.57
2022-11-24T06:42:37.484Z,5.63
2022-11-24T06:45:08.782Z,6.50
2022-11-24T06:47:35.998Z,6.60
2022-11-24T06:50:02.709Z,3.93
2022-11-24T06:52:29.191Z,6.80
2022-11-24T06:54:55.737Z,2.50
2022-11-24T06:57:22.170Z,9.83
2022-11-24T06:59:48.715Z,7.97
2022-11-24T07:02:15.280Z,9.10
2022-11-24T07:04:41.674Z,11.10
2022-11-24T07:07:08.145Z,5.77
2022-11-24T07:09:34.620Z,9.03
2022-11-24T07:12:02.281Z,7.77
2022-11-24T07:14:28.676Z,5.83
2022-11-24T07:16:55.114Z,6.63
2022-11-24T07:19:24.902Z,7.57
2022-11-24T07:21:51.541Z,6.63
2022-11-24T07:24:17.978Z,9.83
2022-11-24T07:26:44.752Z,6.70
2022-11-24T07:29:11.133Z,5.47
2022-11-24T07:31:37.889Z,8.23
2022-11-24T07:34:04.397Z,9.73
2022-11-24T07:36:30.924Z,7.30
2022-11-24T07:38:57.670Z,6.97
2022-11-24T07:41:24.211Z,7.67
2022-11-24T07:43:51.544Z,6.10
2022-11-24T07:46:19.430Z,4.37
2022-11-24T07:48:46.878Z,6.10
2022-11-24T07:51:13.367Z,8.23
2022-11-24T07:53:39.989Z,10.53
2022-11-24T07:56:07.116Z,5.17
2022-11-24T07:58:36.021Z,8.20
2022-11-24T08:01:13.241Z,13.50
2022-11-24T08:03:40.434Z,6.37
2022-11-24T08:06:24.008Z,6.03
2022-11-24T08:08:52.851Z,10.07
2022-11-24T08:11:19.377Z,10.17
2022-11-24T08:13:45.943Z,8.77
2022-11-24T08:16:15.074Z,4.03
2022-11-24T08:18:42.890Z,7.00
2022-11-24T08:21:14.236Z,6.20
2022-11-24T08:23:41.573Z,5.87
2022-11-24T08:26:13.856Z,1.67
2022-11-24T08:28:40.318Z,6.90
2022-11-24T08:31:09.624Z,9.37
2022-11-24T08:33:37.147Z,7.63
2022-11-24T08:36:08.843Z,4.13
2022-11-24T08:38:35.361Z,6.40
2022-11-24T08:41:03.779Z,4.30
2022-11-24T08:43:30.757Z,2.83
2022-11-24T08:46:06.289Z,3.73
2022-11-24T08:48:33.919Z,7.67
2022-11-24T08:51:07.753Z,5.43
2022-11-24T08:53:34.422Z,5.80
2022-11-24T08:56:01.443Z,5.27
2022-11-24T08:58:30.999Z,6.77
2022-11-24T09:01:13.828Z,4.70
2022-11-24T09:03:46.590Z,5.33
2022-11-24T09:06:15.712Z,1.77
2022-11-24T09:08:42.274Z,4.10
2022-11-24T09:11:13.830Z,1.13
2022-11-24T09:13:41.163Z,1.63
2022-11-24T09:16:11.185Z,3.30
2022-11-24T09:18:38.455Z,0.97
2022-11-24T09:21:21.692Z,2.07
2022-11-24T09:23:50.728Z,1.23
2022-11-24T09:26:23.020Z,2.30
2022-11-24T09:28:50.324Z,2.27
2022-11-24T09:31:17.988Z,3.67
2022-11-24T09:33:45.031Z,2.50
2022-11-24T09:36:11.448Z,1.07
2022-11-24T09:38:38.066Z,0.90
2022-11-24T09:41:43.389Z,0.73
2022-11-24T09:44:54.549Z,3.40
2022-11-24T09:47:42.492Z,0.93
2022-11-24T09:50:18.359Z,3.00
2022-11-24T09:53:00.996Z,1.40
2022-11-24T09:55:33.536Z,1.47
2022-11-24T09:58:38.457Z,0.70
2022-11-24T10:01:26.203Z,0.57
2022-11-24T10:03:54.292Z,0.70
2022-11-24T10:06:26.346Z,1.17
2022-11-24T10:09:07.908Z,0.60
2022-11-24T10:12:02.339Z,0.43
2022-11-24T10:14:41.754Z,0.50
2022-11-24T10:17:53.069Z,1.60
2022-11-24T10:20:27.832Z,0.93
2022-11-24T10:23:17.191Z,0.50
2022-11-24T10:26:16.206Z,1.47
2022-11-24T10:28:55.105Z,0.50
2022-11-24T10:31:45.721Z,0.60
2022-11-24T10:34:25.576Z,2.73
2022-11-24T10:36:58.087Z,1.47
2022-11-24T10:39:39.885Z,0.70
2022-11-24T10:42:18.198Z,1.13
2022-11-24T10:44:44.708Z,0.50
2022-11-24T10:47:34.401Z,0.80
2022-11-24T10:50:26.434Z,2.30
2022-11-24T10:53:18.475Z,1.40
2022-11-24T10:55:56.810Z,3.17
2022-11-24T10:58:37.719Z,0.70
2022-11-24T11:01:13.713Z,7.63
2022-11-24T11:03:59.969Z,2.10
2022-11-24T11:06:36.258Z,1.40
2022-11-24T11:09:08.396Z,0.60
2022-11-24T11:11:36.339Z,0.70
2022-11-24T11:14:05.853Z,0.60
2022-11-24T11:16:38.064Z,0.63
2022-11-24T11:19:47.740Z,2.57
2022-11-24T11:22:12.050Z,1.73
2022-11-24T11:24:43.347Z,0.60
2022-11-24T11:27:30.044Z,1.17
2022-11-24T11:36:11.155Z,3.27
2022-11-24T11:38:39.145Z,2.30
2022-11-24T11:41:10.734Z,4.70
2022-11-24T11:43:41.010Z,2.77
2022-11-24T11:46:18.207Z,0.80
2022-11-24T11:48:46.839Z,4.73
2022-11-24T11:51:24.479Z,2.67
2022-11-24T11:54:38.577Z,2.67
2022-11-24T11:57:13.237Z,1.70
2022-11-24T11:59:42.174Z,1.07
2022-11-24T12:02:51.548Z,1.70
2022-11-24T12:05:49.855Z,2.47
2022-11-24T12:09:17.795Z,1.77
2022-11-24T12:11:43.607Z,2.53
2022-11-24T12:14:18.936Z,3.87
2022-11-24T12:17:22.620Z,4.57
2022-11-24T12:20:03.772Z,1.23
2022-11-24T12:22:39.210Z,1.60
2022-11-24T12:25:30.213Z,5.47
2022-11-24T12:28:18.200Z,3.77
2022-11-24T12:31:09.371Z,2.90
2022-11-24T12:34:14.660Z,1.97
2022-11-24T12:36:57.850Z,2.10
2022-11-24T12:39:52.838Z,4.03
2022-11-24T12:42:40.898Z,6.07
2022-11-24T12:45:14.330Z,2.50
2022-11-24T12:48:07.135Z,9.63
2022-11-24T12:50:38.998Z,5.97
2022-11-24T12:53:25.419Z,6.10
2022-11-24T12:55:53.116Z,4.00
2022-11-24T12:58:41.338Z,3.77
2022-11-24T13:01:18.436Z,7.23
2022-11-24T13:04:03.169Z,5.60
2022-11-24T13:06:39.722Z,2.97
2022-11-24T13:09:09.379Z,1.90
2022-11-24T13:11:41.908Z,2.50
2022-11-24T13:14:30.452Z,4.17
2022-11-24T13:17:28.485Z,3.23
2022-11-24T13:19:46.126Z,2.47
2022-11-24T13:22:24.210Z,4.37
2022-11-24T13:25:28.676Z,4.00
2022-11-24T13:28:00.188Z,2.30
2022-11-24T13:30:35.674Z,4.50
2022-11-24T13:33:16.014Z,2.07
2022-11-24T13:36:04.006Z,2.50
2022-11-24T13:38:45.686Z,5.03
2022-11-24T13:41:32.270Z,2.00
2022-11-24T13:44:17.151Z,5.73
2022-11-24T13:47:06.244Z,3.97
2022-11-24T13:49:41.206Z,4.87
2022-11-24T13:52:38.727Z,3.67
2022-11-24T13:55:11.765Z,3.63
2022-11-24T13:57:41.461Z,2.57
2022-11-24T14:00:32.264Z,3.53
2022-11-24T14:03:36.262Z,11.83
2022-11-24T14:06:03.888Z,2.80
2022-11-24T14:08:37.641Z,5.37
2022-11-24T14:11:13.135Z,1.80
2022-11-24T14:13:39.546Z,3.10
2022-11-24T14:16:06.091Z,3.37
2022-11-24T14:18:34.261Z,4.80
2022-11-24T14:21:16.586Z,1.07
2022-11-24T14:23:50.958Z,3.67
2022-11-24T14:26:20.537Z,3.17
2022-11-24T14:28:47.865Z,2.67
2022-11-24T14:31:25.097Z,6.57
2022-11-24T14:34:12.737Z,6.60
2022-11-24T14:36:39.855Z,3.20
2022-11-24T14:39:11.026Z,3.93
2022-11-24T14:41:37.501Z,3.17
2022-11-24T14:44:28.541Z,4.83
2022-11-24T14:47:14.920Z,3.17
2022-11-24T14:49:43.209Z,2.60
2022-11-24T14:52:14.309Z,2.87
2022-11-24T14:54:50.858Z,3.97
2022-11-24T14:57:24.917Z,6.03
2022-11-24T15:00:08.891Z,2.97
2022-11-24T15:02:46.243Z,3.50
2022-11-24T15:05:12.993Z,6.83
2022-11-24T15:07:43.419Z,2.33
2022-11-24T15:10:36.179Z,7.17
2022-11-24T15:13:15.290Z,6.33
2022-11-24T15:15:49.396Z,8.87
2022-11-24T15:18:46.770Z,3.43
2022-11-24T15:21:18.904Z,3.60
2022-11-24T15:24:06.342Z,1.93
2022-11-24T15:26:38.248Z,3.83
2022-11-24T15:29:07.991Z,3.43
2022-11-24T15:31:34.452Z,3.47
2022-11-24T15:34:00.960Z,2.73
2022-11-24T15:36:27.420Z,5.03
2022-11-24T15:38:53.774Z,6.33
2022-11-24T15:41:22.194Z,4.03
2022-11-24T15:43:48.652Z,1.73
2022-11-24T15:46:15.953Z,8.10
2022-11-24T15:48:42.426Z,2.03
2022-11-24T15:51:13.446Z,5.93
2022-11-24T15:53:44.188Z,7.67
2022-11-24T15:56:33.015Z,8.03
2022-11-24T15:59:00.192Z,9.93
2022-11-24T16:01:30.267Z,3.57
2022-11-24T16:03:56.829Z,6.70
2022-11-24T16:06:25.046Z,6.40
2022-11-24T16:08:52.845Z,5.80
2022-11-24T16:11:20.564Z,5.60
2022-11-24T16:13:51.814Z,5.33
2022-11-24T16:16:19.879Z,5.20
2022-11-24T16:18:46.453Z,4.63
2022-11-24T16:21:12.903Z,3.33
2022-11-24T16:23:39.350Z,7.70
2022-11-24T16:26:06.464Z,9.43
2022-11-24T16:28:33.201Z,7.23
2022-11-24T16:30:59.613Z,7.47
2022-11-24T16:33:26.047Z,6.50
2022-11-24T16:35:52.481Z,10.70
2022-11-24T16:38:20.014Z,5.53
2022-11-24T16:40:54.463Z,2.50
2022-11-24T16:43:20.931Z,7.27
2022-11-24T16:46:03.172Z,4.53
2022-11-24T16:48:46.154Z,9.73
2022-11-24T16:51:14.442Z,6.13
2022-11-24T16:53:42.791Z,10.52
2022-11-24T16:56:11.107Z,8.20
2022-11-24T16:58:43.697Z,8.87
2022-11-24T17:03:51.887Z,7.53
2022-11-24T17:06:19.101Z,8.77
2022-11-24T17:08:46.965Z,9.70
2022-11-24T17:11:16.081Z,10.03
2022-11-24T17:13:43.484Z,13.37
2022-11-24T17:16:12.227Z,11.93
2022-11-24T17:18:39.127Z,13.00
2022-11-24T17:21:09.735Z,8.87
2022-11-24T17:23:37.029Z,8.17
2022-11-24T17:26:21.762Z,6.70
2022-11-24T17:28:48.179Z,8.63
2022-11-24T17:31:23.001Z,10.17
2022-11-24T17:33:54.498Z,7.13
2022-11-24T17:36:22.154Z,4.80
2022-11-24T17:38:49.555Z,8.87
2022-11-24T17:41:19.865Z,4.03
2022-11-24T17:43:50.814Z,5.60
2022-11-24T17:46:17.480Z,9.83
2022-11-24T17:48:43.946Z,5.60
2022-11-24T17:51:16.089Z,8.00
2022-11-24T17:53:43.659Z,7.47
2022-11-24T17:56:15.024Z,6.00
2022-11-24T17:58:43.352Z,7.13
2022-11-24T18:01:11.202Z,9.23
2022-11-24T18:03:41.513Z,5.77
2022-11-24T18:06:10.342Z,4.53
2022-11-24T18:08:38.486Z,9.53
2022-11-24T18:11:09.243Z,6.40
2022-11-24T18:13:55.815Z,6.57
2022-11-24T18:16:24.286Z,4.57
2022-11-24T18:19:07.363Z,4.43
2022-11-24T18:21:35.227Z,10.70
2022-11-24T18:24:01.987Z,6.70
2022-11-24T18:26:28.638Z,7.43
2022-11-24T18:28:55.021Z,5.97
2022-11-24T18:31:22.568Z,8.20
2022-11-24T18:33:49.163Z,9.70
2022-11-24T18:36:18.464Z,20.27
2022-11-24T18:38:45.427Z,9.80
2022-11-24T18:41:13.603Z,7.53
2022-11-24T18:43:40.285Z,6.27
2022-11-24T18:46:08.319Z,9.53
2022-11-24T18:48:34.965Z,5.57
2022-11-24T18:51:01.863Z,10.23
2022-11-24T18:53:29.301Z,7.13
2022-11-24T18:55:58.813Z,8.57
2022-11-24T18:58:27.049Z,13.53
2022-11-24T19:00:55.173Z,8.20
2022-11-24T19:03:21.581Z,9.40
2022-11-24T19:05:47.998Z,6.90
2022-11-24T19:08:14.427Z,9.87
2022-11-24T19:10:41.941Z,13.43
2022-11-24T19:13:08.380Z,10.00
2022-11-24T19:15:35.426Z,10.93
2022-11-24T19:18:02.137Z,13.17
2022-11-24T19:20:28.878Z,9.97
2022-11-24T19:22:55.367Z,15.15
2022-11-24T19:25:21.779Z,9.20
2022-11-24T19:27:48.273Z,9.83
2022-11-24T19:30:16.619Z,10.20
2022-11-24T19:32:43.090Z,13.83
2022-11-24T19:35:10.092Z,10.70
2022-11-24T19:37:37.255Z,8.97
2022-11-24T19:40:04.499Z,10.67
2022-11-24T19:42:31.003Z,9.83
2022-11-24T19:44:57.374Z,7.60
2022-11-24T19:47:23.765Z,8.73
2022-11-24T19:49:50.284Z,9.77
2022-11-24T19:52:16.661Z,8.27
2022-11-24T19:54:43.209Z,9.83
2022-11-24T19:57:09.735Z,16.87
2022-11-24T19:59:36.128Z,10.07
2022-11-24T20:02:02.787Z,10.37
2022-11-24T20:04:29.601Z,8.70
2022-11-24T20:06:56.042Z,7.10
2022-11-24T20:09:22.437Z,9.40
2022-11-24T20:11:49.116Z,12.83
2022-11-24T20:14:26.118Z,9.87
2022-11-24T20:16:52.716Z,9.67
2022-11-24T20:19:19.187Z,10.33
2022-11-24T20:21:47.780Z,5.50
2022-11-24T20:24:19.329Z,10.20
2022-11-24T20:26:52.007Z,6.50
2022-11-24T20:29:19.173Z,7.23
2022-11-24T20:31:48.728Z,6.80
2022-11-24T20:34:15.981Z,11.63
2022-11-24T20:36:44.381Z,14.03
2022-11-24T20:39:34.004Z,8.97
2022-11-24T20:42:00.357Z,8.03
2022-11-24T20:44:27.642Z,6.27
2022-11-24T20:46:56.659Z,8.97
2022-11-24T20:49:23.189Z,9.90
2022-11-24T20:51:54.198Z,7.43
2022-11-24T20:54:21.553Z,5.40
2022-11-24T20:56:48.457Z,13.70
2022-11-24T20:59:18.184Z,7.80
2022-11-24T21:01:46.448Z,7.03
2022-11-24T21:04:16.958Z,7.57
2022-11-24T21:06:43.448Z,8.70
2022-11-24T21:09:10.465Z,9.07
2022-11-24T21:11:38.039Z,14.33
2022-11-24T21:14:05.404Z,14.80
2022-11-24T21:16:34.724Z,12.80
2022-11-24T21:19:04.300Z,8.23
2022-11-24T21:21:34.578Z,8.77
2022-11-24T21:24:06.815Z,9.83
2022-11-24T21:26:37.188Z,10.17
2022-11-24T21:29:04.233Z,15.53
2022-11-24T21:31:30.720Z,7.57
2022-11-24T21:33:57.163Z,9.87
2022-11-24T21:36:25.571Z,8.07
2022-11-24T21:39:02.455Z,7.23
2022-11-24T21:41:32.523Z,12.23
2022-11-24T21:43:59.042Z,8.10
2022-11-24T21:46:25.662Z,11.23
2022-11-24T21:48:52.097Z,8.07
2022-11-24T21:51:20.311Z,11.87
2022-11-24T21:53:47.566Z,17.33
2022-11-24T21:56:16.941Z,18.47
2022-11-24T21:58:45.620Z,22.47
2022-11-24T22:01:12.421Z,17.83
2022-11-24T22:03:38.830Z,14.10
2022-11-24T22:06:05.618Z,13.03
2022-11-24T22:08:32.500Z,8.33
2022-11-24T22:11:04.399Z,9.23
2022-11-24T22:13:31.153Z,12.20
2022-11-24T22:16:05.301Z,10.80
2022-11-24T22:18:34.038Z,14.67
2022-11-24T22:21:02.770Z,12.73
2022-11-24T22:23:33.501Z,14.07
2022-11-24T22:26:10.014Z,10.27
2022-11-24T22:28:36.825Z,10.20
2022-11-24T22:31:13.231Z,11.83
2022-11-24T22:33:40.108Z,9.23
2022-11-24T22:36:07.374Z,14.37
2022-11-24T22:38:34.279Z,11.77
2022-11-24T22:41:06.247Z,14.57
2022-11-24T22:43:34.186Z,12.03
2022-11-24T22:46:26.048Z,17.17
2022-11-24T22:48:54.006Z,14.50
2022-11-24T22:51:26.429Z,14.93
2022-11-24T22:53:56.159Z,16.27
2022-11-24T22:56:23.740Z,13.30
2022-11-24T22:58:50.842Z,11.63
2022-11-24T23:01:22.641Z,12.73
2022-11-24T23:03:50.106Z,15.87
2022-11-24T23:06:22.459Z,18.23
2022-11-24T23:08:49.703Z,17.63
2022-11-24T23:11:24.662Z,19.10
2022-11-24T23:13:58.483Z,15.20
2022-11-24T23:16:24.991Z,14.33
2022-11-24T23:18:54.065Z,9.20
2022-11-24T23:21:30.708Z,10.40
2022-11-24T23:23:59.325Z,10.20
2022-11-24T23:26:32.360Z,9.20
2022-11-24T23:28:58.847Z,8.10
2022-11-24T23:31:30.267Z,7.80
2022-11-24T23:34:01.901Z,12.13
2022-11-24T23:36:29.291Z,8.13
2022-11-24T23:38:55.897Z,8.10
2022-11-24T23:41:24.958Z,5.93
2022-11-24T23:43:52.437Z,6.73
2022-11-24T23:46:21.373Z,7.00
2022-11-24T23:48:49.235Z,7.83
2022-11-24T23:51:18.860Z,5.80
2022-11-24T23:53:45.712Z,7.97
2022-11-24T23:56:14.935Z,7.67
2022-11-24T23:58:41.779Z,5.47
